createdAt,value
2018-04-02T00:00:44.940Z,1009.63
2018-04-02T00:01:44.891Z,1009.58
2018-04-02T00:02:44.848Z,1009.59
2018-04-02T00:03:44.809Z,1009.55
2018-04-02T00:04:44.754Z,1009.59
2018-04-02T00:05:44.707Z,1009.58
2018-04-02T00:06:44.659Z,1009.56
2018-04-02T00:07:44.619Z,1009.56
2018-04-02T00:08:44.567Z,1009.55
2018-04-02T00:09:44.523Z,1009.55
2018-04-02T00:10:44.476Z,1009.54
2018-04-02T00:11:44.426Z,1009.54
2018-04-02T00:12:44.384Z,1009.55
2018-04-02T00:13:44.333Z,1009.52
2018-04-02T00:14:44.294Z,1009.53
2018-04-02T00:15:44.241Z,1009.53
2018-04-02T00:16:44.198Z,1009.53
2018-04-02T00:17:44.147Z,1009.56
2018-04-02T00:18:44.102Z,1009.55
2018-04-02T00:19:44.058Z,1009.56
2018-04-02T00:20:44.012Z,1009.55
2018-04-02T00:21:43.961Z,1009.49
2018-04-02T00:22:43.914Z,1009.48
2018-04-02T00:23:43.868Z,1009.47
2018-04-02T00:24:43.827Z,1009.48
2018-04-02T00:25:43.776Z,1009.48
2018-04-02T00:26:43.728Z,1009.51
2018-04-02T00:27:43.682Z,1009.53
2018-04-02T00:28:43.639Z,1009.53
2018-04-02T00:29:43.586Z,1009.51
2018-04-02T00:30:43.544Z,1009.55
2018-04-02T00:31:43.499Z,1009.53
2018-04-02T00:32:43.447Z,1009.54
2018-04-02T00:33:43.416Z,1009.49
2018-04-02T00:34:43.378Z,1009.52
2018-04-02T00:35:43.309Z,1009.54
2018-04-02T00:36:43.260Z,1009.57
2018-04-02T00:37:43.211Z,1009.56
2018-04-02T00:38:43.169Z,1009.58
2018-04-02T00:39:43.118Z,1009.55
2018-04-02T00:40:43.130Z,1009.53
2018-04-02T00:41:43.026Z,1009.54
2018-04-02T00:42:42.979Z,1009.57
2018-04-02T00:43:42.928Z,1009.56
2018-04-02T00:44:42.883Z,1009.54
2018-04-02T00:45:42.842Z,1009.49
2018-04-02T00:46:42.798Z,1009.49
2018-04-02T00:47:42.744Z,1009.48
2018-04-02T00:48:42.701Z,1009.45
2018-04-02T00:49:42.651Z,1009.45
2018-04-02T00:50:42.602Z,1009.43
2018-04-02T00:51:42.555Z,1009.43
2018-04-02T00:53:42.459Z,1009.35
2018-04-02T00:54:42.411Z,1009.35
2018-04-02T00:55:42.368Z,1009.32
2018-04-02T00:56:42.321Z,1009.37
2018-04-02T00:57:42.272Z,1009.33
2018-04-02T00:58:42.230Z,1009.35
2018-04-02T00:59:42.179Z,1009.35
2018-04-02T01:00:42.137Z,1009.35
2018-04-02T01:01:42.081Z,1009.35
2018-04-02T01:02:42.035Z,1009.31
2018-04-02T01:03:41.987Z,1009.29
2018-04-02T01:04:41.938Z,1009.30
2018-04-02T01:05:41.896Z,1009.29
2018-04-02T01:06:41.846Z,1009.28
2018-04-02T01:07:41.797Z,1009.27
2018-04-02T01:08:41.750Z,1009.29
2018-04-02T01:09:41.705Z,1009.24
2018-04-02T01:10:41.663Z,1009.28
2018-04-02T01:11:41.611Z,1009.28
2018-04-02T01:12:41.565Z,1009.25
2018-04-02T01:13:41.512Z,1009.27
2018-04-02T01:14:41.466Z,1009.27
2018-04-02T01:15:41.419Z,1009.21
2018-04-02T01:16:41.371Z,1009.21
2018-04-02T01:17:41.329Z,1009.19
2018-04-02T01:18:41.277Z,1009.17
2018-04-02T01:19:41.229Z,1009.16
2018-04-02T01:20:41.186Z,1009.17
2018-04-02T01:21:41.135Z,1009.12
2018-04-02T01:22:41.088Z,1009.09
2018-04-02T01:23:41.037Z,1009.09
2018-04-02T01:24:40.992Z,1009.08
2018-04-02T01:25:40.944Z,1009.07
2018-04-02T01:26:40.898Z,1009.07
2018-04-02T01:27:40.849Z,1009.05
2018-04-02T01:28:40.805Z,1009.01
2018-04-02T01:29:40.753Z,1009.00
2018-04-02T01:30:40.707Z,1008.98
2018-04-02T01:31:40.664Z,1008.96
2018-04-02T01:32:40.612Z,1008.94
2018-04-02T01:33:40.564Z,1008.94
2018-04-02T01:34:40.517Z,1008.91
2018-04-02T01:35:40.585Z,1008.92
2018-04-02T01:36:40.419Z,1008.92
2018-04-02T01:37:40.373Z,1008.88
2018-04-02T01:38:40.322Z,1008.86
2018-04-02T01:39:40.277Z,1008.89
2018-04-02T01:40:40.229Z,1008.85
2018-04-02T01:41:40.179Z,1008.81
2018-04-02T01:42:40.138Z,1008.82
2018-04-02T01:43:40.086Z,1008.80
2018-04-02T01:44:40.082Z,1008.83
2018-04-02T01:45:40.008Z,1008.78
2018-04-02T01:46:39.942Z,1008.84
2018-04-02T01:47:39.899Z,1008.83
2018-04-02T01:48:39.849Z,1008.80
2018-04-02T01:49:39.800Z,1008.79
2018-04-02T01:50:39.751Z,1008.79
2018-04-02T01:51:39.703Z,1008.79
2018-04-02T01:52:39.657Z,1008.79
2018-04-02T01:53:39.608Z,1008.76
2018-04-02T01:54:39.561Z,1008.79
2018-04-02T01:55:39.514Z,1008.77
2018-04-02T01:56:39.467Z,1008.79
2018-04-02T01:57:39.419Z,1008.77
2018-04-02T01:58:39.368Z,1008.79
2018-04-02T01:59:39.322Z,1008.75
2018-04-02T02:00:39.272Z,1008.73
2018-04-02T02:01:39.229Z,1008.77
2018-04-02T02:02:39.179Z,1008.76
2018-04-02T02:03:39.129Z,1008.74
2018-04-02T02:04:39.084Z,1008.73
2018-04-02T02:05:39.036Z,1008.69
2018-04-02T02:06:38.988Z,1008.74
2018-04-02T02:07:38.940Z,1008.70
2018-04-02T02:08:38.891Z,1008.71
2018-04-02T02:09:38.841Z,1008.72
2018-04-02T02:10:38.804Z,1008.74
2018-04-02T02:11:38.746Z,1008.67
2018-04-02T02:12:38.702Z,1008.71
2018-04-02T02:13:38.651Z,1008.61
2018-04-02T02:14:38.607Z,1008.65
2018-04-02T02:15:38.555Z,1008.68
2018-04-02T02:16:38.511Z,1008.68
2018-04-02T02:17:38.461Z,1008.60
2018-04-02T02:18:38.412Z,1008.57
2018-04-02T02:19:38.364Z,1008.64
2018-04-02T02:20:38.316Z,1008.55
2018-04-02T02:21:38.268Z,1008.54
2018-04-02T02:22:38.227Z,1008.53
2018-04-02T02:23:38.172Z,1008.52
2018-04-02T02:24:38.124Z,1008.49
2018-04-02T02:25:38.082Z,1008.57
2018-04-02T02:26:38.027Z,1008.52
2018-04-02T02:27:37.981Z,1008.54
2018-04-02T02:28:37.931Z,1008.54
2018-04-02T02:29:37.887Z,1008.52
2018-04-02T02:30:37.837Z,1008.43
2018-04-02T02:31:37.791Z,1008.49
2018-04-02T02:32:37.740Z,1008.48
2018-04-02T02:33:37.695Z,1008.46
2018-04-02T02:34:37.644Z,1008.46
2018-04-02T02:35:37.596Z,1008.46
2018-04-02T02:36:37.551Z,1008.48
2018-04-02T02:37:37.530Z,1008.48
2018-04-02T02:38:37.454Z,1008.47
2018-04-02T02:39:37.404Z,1008.43
2018-04-02T02:40:37.360Z,1008.41
2018-04-02T02:41:37.308Z,1008.41
2018-04-02T02:42:37.262Z,1008.39
2018-04-02T02:43:37.216Z,1008.41
2018-04-02T02:44:37.167Z,1008.39
2018-04-02T02:45:37.118Z,1008.39
2018-04-02T02:46:37.089Z,1008.37
2018-04-02T02:47:37.022Z,1008.38
2018-04-02T02:48:36.973Z,1008.34
2018-04-02T02:49:36.926Z,1008.30
2018-04-02T02:50:36.879Z,1008.32
2018-04-02T02:51:36.832Z,1008.29
2018-04-02T02:52:36.787Z,1008.27
2018-04-02T02:53:36.735Z,1008.28
2018-04-02T02:54:36.688Z,1008.31
2018-04-02T02:55:36.639Z,1008.26
2018-04-02T02:56:36.595Z,1008.26
2018-04-02T02:57:36.546Z,1008.24
2018-04-02T02:58:36.497Z,1008.22
2018-04-02T02:59:36.447Z,1008.24
2018-04-02T03:00:36.398Z,1008.23
2018-04-02T03:01:36.352Z,1008.26
2018-04-02T03:02:36.308Z,1008.26
2018-04-02T03:03:36.266Z,1008.22
2018-04-02T03:04:36.218Z,1008.25
2018-04-02T03:05:36.158Z,1008.15
2018-04-02T03:06:36.116Z,1008.16
2018-04-02T03:07:36.068Z,1008.21
2018-04-02T03:08:36.020Z,1008.19
2018-04-02T03:09:35.969Z,1008.20
2018-04-02T03:10:35.920Z,1008.21
2018-04-02T03:11:35.875Z,1008.18
2018-04-02T03:12:35.825Z,1008.27
2018-04-02T03:13:35.775Z,1008.25
2018-04-02T03:14:35.728Z,1008.29
2018-04-02T03:15:35.683Z,1008.27
2018-04-02T03:16:35.638Z,1008.29
2018-04-02T03:17:35.584Z,1008.30
2018-04-02T03:18:35.539Z,1008.32
2018-04-02T03:19:35.491Z,1008.29
2018-04-02T03:20:35.440Z,1008.33
2018-04-02T03:21:35.392Z,1008.31
2018-04-02T03:22:35.349Z,1008.26
2018-04-02T03:23:35.298Z,1008.29
2018-04-02T03:24:35.249Z,1008.34
2018-04-02T03:25:35.202Z,1008.31
2018-04-02T03:26:35.153Z,1008.34
2018-04-02T03:27:35.106Z,1008.30
2018-04-02T03:28:35.057Z,1008.32
2018-04-02T03:29:35.009Z,1008.30
2018-04-02T03:30:34.962Z,1008.29
2018-04-02T03:31:34.920Z,1008.29
2018-04-02T03:32:34.870Z,1008.30
2018-04-02T03:33:34.820Z,1008.22
2018-04-02T03:34:34.772Z,1008.24
2018-04-02T03:35:34.720Z,1008.20
2018-04-02T03:36:34.676Z,1008.22
2018-04-02T03:37:34.627Z,1008.20
2018-04-02T03:38:34.577Z,1008.16
2018-04-02T03:39:34.542Z,1008.09
2018-04-02T03:40:34.483Z,1008.07
2018-04-02T03:41:34.432Z,1008.08
2018-04-02T03:42:34.387Z,1008.10
2018-04-02T03:43:34.344Z,1008.05
2018-04-02T03:44:34.292Z,1008.07
2018-04-02T03:45:34.251Z,1008.03
2018-04-02T03:46:34.197Z,1008.03
2018-04-02T03:47:34.146Z,1007.98
2018-04-02T03:48:34.104Z,1007.97
2018-04-02T03:49:34.051Z,1007.99
2018-04-02T03:50:34.009Z,1007.96
2018-04-02T03:51:33.960Z,1007.93
2018-04-02T03:52:33.908Z,1007.94
2018-04-02T03:53:33.861Z,1007.95
2018-04-02T03:54:33.811Z,1007.94
2018-04-02T03:55:33.766Z,1007.95
2018-04-02T03:56:33.719Z,1007.94
2018-04-02T03:57:33.672Z,1007.93
2018-04-02T03:58:33.626Z,1007.85
2018-04-02T03:59:33.578Z,1007.88
2018-04-02T04:00:33.530Z,1007.86
2018-04-02T04:01:33.477Z,1007.82
2018-04-02T04:02:33.435Z,1007.87
2018-04-02T04:03:33.382Z,1007.86
2018-04-02T04:04:33.335Z,1007.91
2018-04-02T04:05:33.292Z,1007.83
2018-04-02T04:06:33.241Z,1007.84
2018-04-02T04:07:33.194Z,1007.85
2018-04-02T04:08:33.144Z,1007.82
2018-04-02T04:09:33.093Z,1007.81
2018-04-02T04:10:33.048Z,1007.78
2018-04-02T04:11:33.002Z,1007.80
2018-04-02T04:12:32.956Z,1007.80
2018-04-02T04:13:32.903Z,1007.75
2018-04-02T04:14:32.856Z,1007.75
2018-04-02T04:15:32.808Z,1007.76
2018-04-02T04:16:32.767Z,1007.73
2018-04-02T04:17:32.713Z,1007.74
2018-04-02T04:18:32.666Z,1007.72
2018-04-02T04:19:32.617Z,1007.72
2018-04-02T04:20:32.573Z,1007.66
2018-04-02T04:21:32.530Z,1007.68
2018-04-02T04:22:32.473Z,1007.67
2018-04-02T04:23:32.432Z,1007.68
2018-04-02T04:24:32.383Z,1007.64
2018-04-02T04:25:32.340Z,1007.58
2018-04-02T04:26:32.284Z,1007.58
2018-04-02T04:27:32.242Z,1007.55
2018-04-02T04:28:32.185Z,1007.55
2018-04-02T04:29:32.140Z,1007.55
2018-04-02T04:30:32.093Z,1007.53
2018-04-02T04:31:32.043Z,1007.49
2018-04-02T04:32:31.996Z,1007.54
2018-04-02T04:33:31.949Z,1007.51
2018-04-02T04:34:31.901Z,1007.47
2018-04-02T04:35:31.852Z,1007.49
2018-04-02T04:36:31.806Z,1007.46
2018-04-02T04:37:31.757Z,1007.47
2018-04-02T04:38:31.710Z,1007.50
2018-04-02T04:39:31.662Z,1007.50
2018-04-02T04:40:31.614Z,1007.46
2018-04-02T04:41:31.564Z,1007.44
2018-04-02T04:42:31.520Z,1007.42
2018-04-02T04:43:31.472Z,1007.46
2018-04-02T04:44:31.423Z,1007.40
2018-04-02T04:45:31.377Z,1007.41
2018-04-02T04:46:31.325Z,1007.41
2018-04-02T04:47:31.277Z,1007.37
2018-04-02T04:48:31.231Z,1007.38
2018-04-02T04:49:31.183Z,1007.40
2018-04-02T04:50:31.134Z,1007.35
2018-04-02T04:51:31.096Z,1007.39
2018-04-02T04:52:31.044Z,1007.36
2018-04-02T04:53:31.008Z,1007.35
2018-04-02T04:54:30.941Z,1007.34
2018-04-02T04:55:30.895Z,1007.37
2018-04-02T04:56:30.846Z,1007.36
2018-04-02T04:57:30.802Z,1007.38
2018-04-02T04:58:30.753Z,1007.36
2018-04-02T04:59:30.710Z,1007.32
2018-04-02T05:00:30.659Z,1007.32
2018-04-02T05:01:30.609Z,1007.30
2018-04-02T05:02:30.563Z,1007.30
2018-04-02T05:03:30.514Z,1007.34
2018-04-02T05:04:30.465Z,1007.31
2018-04-02T05:05:30.415Z,1007.31
2018-04-02T05:06:30.378Z,1007.32
2018-04-02T05:07:30.324Z,1007.29
2018-04-02T05:08:30.274Z,1007.27
2018-04-02T05:09:30.227Z,1007.28
2018-04-02T05:10:30.176Z,1007.25
2018-04-02T05:11:30.134Z,1007.22
2018-04-02T05:12:30.081Z,1007.24
2018-04-02T05:13:30.035Z,1007.24
2018-04-02T05:14:29.988Z,1007.22
2018-04-02T05:15:29.937Z,1007.20
2018-04-02T05:16:29.894Z,1007.19
2018-04-02T05:17:29.845Z,1007.20
2018-04-02T05:18:29.795Z,1007.19
2018-04-02T05:19:29.747Z,1007.21
2018-04-02T05:20:29.698Z,1007.22
2018-04-02T05:21:29.654Z,1007.19
2018-04-02T05:22:29.603Z,1007.17
2018-04-02T05:23:29.558Z,1007.15
2018-04-02T05:24:29.509Z,1007.14
2018-04-02T05:25:29.464Z,1007.19
2018-04-02T05:26:29.418Z,1007.15
2018-04-02T05:27:29.363Z,1007.16
2018-04-02T05:28:29.317Z,1007.17
2018-04-02T05:29:29.265Z,1007.15
2018-04-02T05:30:29.222Z,1007.14
2018-04-02T05:31:29.171Z,1007.11
2018-04-02T05:32:29.126Z,1007.09
2018-04-02T05:33:29.081Z,1007.12
2018-04-02T05:34:29.025Z,1007.09
2018-04-02T05:35:28.982Z,1007.07
2018-04-02T05:36:28.939Z,1007.09
2018-04-02T05:37:28.880Z,1007.12
2018-04-02T05:38:28.836Z,1007.11
2018-04-02T05:39:28.787Z,1007.09
2018-04-02T05:40:28.757Z,1007.08
2018-04-02T05:41:28.692Z,1007.12
2018-04-02T05:42:28.645Z,1007.11
2018-04-02T05:43:28.594Z,1007.09
2018-04-02T05:44:28.548Z,1007.06
2018-04-02T05:45:28.503Z,1007.05
2018-04-02T05:46:28.457Z,1007.08
2018-04-02T05:47:28.402Z,1007.03
2018-04-02T05:48:28.358Z,1006.96
2018-04-02T05:49:28.309Z,1006.97
2018-04-02T05:50:28.270Z,1006.97
2018-04-02T05:51:28.217Z,1006.92
2018-04-02T05:52:28.163Z,1006.96
2018-04-02T05:53:28.116Z,1006.92
2018-04-02T05:54:28.077Z,1006.92
2018-04-02T05:55:28.023Z,1006.92
2018-04-02T05:56:27.979Z,1006.91
2018-04-02T05:57:27.930Z,1006.91
2018-04-02T05:58:27.878Z,1006.90
2018-04-02T05:59:27.833Z,1006.89
2018-04-02T06:00:27.785Z,1006.89
2018-04-02T06:01:27.740Z,1006.82
2018-04-02T06:02:27.689Z,1006.82
2018-04-02T06:03:27.638Z,1006.81
2018-04-02T06:04:27.595Z,1006.84
2018-04-02T06:05:27.543Z,1006.79
2018-04-02T06:06:27.496Z,1006.88
2018-04-02T06:07:27.447Z,1006.83
2018-04-02T06:08:27.401Z,1006.89
2018-04-02T06:09:27.355Z,1006.88
2018-04-02T06:10:27.308Z,1006.88
2018-04-02T06:11:27.262Z,1006.84
2018-04-02T06:12:27.212Z,1006.86
2018-04-02T06:13:27.165Z,1006.87
2018-04-02T06:14:27.116Z,1006.83
2018-04-02T06:15:27.072Z,1006.83
2018-04-02T06:16:27.018Z,1006.84
2018-04-02T06:17:26.974Z,1006.77
2018-04-02T06:18:26.922Z,1006.82
2018-04-02T06:19:26.877Z,1006.80
2018-04-02T06:20:26.831Z,1006.80
2018-04-02T06:21:26.780Z,1006.78
2018-04-02T06:22:26.771Z,1006.81
2018-04-02T06:23:26.694Z,1006.83
2018-04-02T06:24:26.648Z,1006.81
2018-04-02T06:25:26.594Z,1006.75
2018-04-02T06:26:26.545Z,1006.79
2018-04-02T06:27:26.499Z,1006.79
2018-04-02T06:28:26.452Z,1006.81
2018-04-02T06:29:26.404Z,1006.79
2018-04-02T06:30:26.362Z,1006.76
2018-04-02T06:31:26.309Z,1006.75
2018-04-02T06:32:26.264Z,1006.77
2018-04-02T06:33:26.216Z,1006.78
2018-04-02T06:34:26.168Z,1006.79
2018-04-02T06:35:26.122Z,1006.80
2018-04-02T06:36:26.073Z,1006.81
2018-04-02T06:37:26.027Z,1006.81
2018-04-02T06:38:25.977Z,1006.83
2018-04-02T06:39:25.931Z,1006.78
2018-04-02T06:40:25.884Z,1006.83
2018-04-02T06:41:25.838Z,1006.80
2018-04-02T06:42:25.790Z,1006.77
2018-04-02T06:43:25.744Z,1006.78
2018-04-02T06:44:25.702Z,1006.78
2018-04-02T06:45:25.655Z,1006.74
2018-04-02T06:46:25.603Z,1006.76
2018-04-02T06:47:25.556Z,1006.78
2018-04-02T06:48:25.512Z,1006.78
2018-04-02T06:49:25.462Z,1006.81
2018-04-02T06:50:25.430Z,1006.79
2018-04-02T06:51:25.374Z,1006.76
2018-04-02T06:52:25.323Z,1006.77
2018-04-02T06:53:25.277Z,1006.74
2018-04-02T06:54:25.257Z,1006.77
2018-04-02T06:55:25.183Z,1006.72
2018-04-02T06:56:25.140Z,1006.72
2018-04-02T06:57:25.087Z,1006.71
2018-04-02T06:58:25.047Z,1006.65
2018-04-02T06:59:25.001Z,1006.64
2018-04-02T07:00:24.947Z,1006.65
2018-04-02T07:01:24.906Z,1006.60
2018-04-02T07:02:24.853Z,1006.64
2018-04-02T07:03:24.809Z,1006.62
2018-04-02T07:04:24.765Z,1006.59
2018-04-02T07:05:24.716Z,1006.55
2018-04-02T07:06:24.669Z,1006.54
2018-04-02T07:07:24.626Z,1006.51
2018-04-02T07:08:24.578Z,1006.53
2018-04-02T07:09:24.533Z,1006.56
2018-04-02T07:10:24.483Z,1006.52
2018-04-02T07:11:24.440Z,1006.56
2018-04-02T07:12:24.392Z,1006.55
2018-04-02T07:13:24.349Z,1006.54
2018-04-02T07:14:24.308Z,1006.52
2018-04-02T07:15:24.256Z,1006.49
2018-04-02T07:16:24.208Z,1006.53
2018-04-02T07:17:24.180Z,1006.49
2018-04-02T07:18:24.117Z,1006.45
2018-04-02T07:19:24.071Z,1006.49
2018-04-02T07:20:24.022Z,1006.43
2018-04-02T07:21:23.977Z,1006.43
2018-04-02T07:22:23.931Z,1006.43
2018-04-02T07:23:23.883Z,1006.38
2018-04-02T07:24:23.838Z,1006.40
2018-04-02T07:25:23.794Z,1006.37
2018-04-02T07:26:23.745Z,1006.39
2018-04-02T07:27:23.703Z,1006.38
2018-04-02T07:28:23.661Z,1006.41
2018-04-02T07:29:23.623Z,1006.39
2018-04-02T07:30:23.563Z,1006.32
2018-04-02T07:31:23.518Z,1006.36
2018-04-02T07:32:23.472Z,1006.32
2018-04-02T07:33:23.426Z,1006.32
2018-04-02T07:34:23.379Z,1006.33
2018-04-02T07:35:23.340Z,1006.33
2018-04-02T07:36:23.290Z,1006.34
2018-04-02T07:37:23.252Z,1006.32
2018-04-02T07:38:23.239Z,1006.30
2018-04-02T07:39:23.804Z,1006.29
2018-04-02T07:40:23.113Z,1006.28
2018-04-02T07:41:23.065Z,1006.30
2018-04-02T07:42:23.016Z,1006.27
2018-04-02T07:43:22.973Z,1006.31
2018-04-02T07:44:22.930Z,1006.26
2018-04-02T07:45:22.879Z,1006.30
2018-04-02T07:46:22.839Z,1006.28
2018-04-02T07:47:22.790Z,1006.25
2018-04-02T07:48:22.746Z,1006.23
2018-04-02T07:49:22.702Z,1006.23
2018-04-02T07:50:22.660Z,1006.21
2018-04-02T07:51:22.610Z,1006.24
2018-04-02T07:52:22.570Z,1006.23
2018-04-02T07:53:22.520Z,1006.23
2018-04-02T07:54:22.477Z,1006.20
2018-04-02T07:55:22.429Z,1006.20
2018-04-02T07:56:22.389Z,1006.30
2018-04-02T07:57:22.340Z,1006.25
2018-04-02T07:58:22.296Z,1006.24
2018-04-02T07:59:22.251Z,1006.24
2018-04-02T08:00:22.210Z,1006.20
2018-04-02T08:01:22.162Z,1006.15
2018-04-02T08:02:22.122Z,1006.16
2018-04-02T08:03:22.073Z,1006.16
2018-04-02T08:04:22.060Z,1006.18
2018-04-02T08:05:21.997Z,1006.16
2018-04-02T08:06:21.942Z,1006.16
2018-04-02T08:07:21.896Z,1006.09
2018-04-02T08:08:21.847Z,1006.07
2018-04-02T08:09:21.804Z,1006.03
2018-04-02T08:10:21.758Z,1006.08
2018-04-02T08:11:21.714Z,1006.03
2018-04-02T08:12:21.673Z,1006.03
2018-04-02T08:13:21.624Z,1006.07
2018-04-02T08:14:21.578Z,1006.04
2018-04-02T08:15:21.534Z,1006.01
2018-04-02T08:16:21.493Z,1006.04
2018-04-02T08:17:21.445Z,1006.02
2018-04-02T08:18:21.406Z,1006.04
2018-04-02T08:19:21.360Z,1006.00
2018-04-02T08:20:21.317Z,1005.97
2018-04-02T08:21:21.273Z,1006.02
2018-04-02T08:22:21.224Z,1006.00
2018-04-02T08:23:21.189Z,1005.93
2018-04-02T08:24:21.137Z,1005.97
2018-04-02T08:25:21.110Z,1005.93
2018-04-02T08:26:21.049Z,1005.96
2018-04-02T08:27:21.005Z,1005.96
2018-04-02T08:28:21.017Z,1005.96
2018-04-02T08:29:20.919Z,1005.96
2018-04-02T08:30:20.874Z,1005.99
2018-04-02T08:31:20.832Z,1005.92
2018-04-02T08:32:20.789Z,1005.98
2018-04-02T08:33:20.740Z,1005.92
2018-04-02T08:34:20.704Z,1005.91
2018-04-02T08:35:20.656Z,1005.93
2018-04-02T08:36:20.608Z,1005.86
2018-04-02T08:37:20.567Z,1005.90
2018-04-02T08:38:20.525Z,1005.92
2018-04-02T08:39:20.481Z,1005.87
2018-04-02T08:40:24.186Z,1005.83
2018-04-02T08:41:20.405Z,1005.82
2018-04-02T08:42:20.350Z,1005.82
2018-04-02T08:43:20.305Z,1005.81
2018-04-02T08:44:20.275Z,1005.87
2018-04-02T08:45:20.217Z,1005.84
2018-04-02T08:46:20.176Z,1005.79
2018-04-02T08:47:20.128Z,1005.78
2018-04-02T08:48:20.087Z,1005.80
2018-04-02T08:49:20.044Z,1005.76
2018-04-02T08:50:20.000Z,1005.79
2018-04-02T08:51:19.955Z,1005.75
2018-04-02T08:52:19.912Z,1005.80
2018-04-02T08:53:19.869Z,1005.75
2018-04-02T08:54:19.830Z,1005.77
2018-04-02T08:55:19.781Z,1005.71
2018-04-02T08:56:19.738Z,1005.73
2018-04-02T08:57:19.697Z,1005.76
2018-04-02T08:58:19.655Z,1005.72
2018-04-02T08:59:19.611Z,1005.83
2018-04-02T09:00:19.575Z,1005.78
2018-04-02T09:01:19.522Z,1005.75
2018-04-02T09:02:19.479Z,1005.74
2018-04-02T09:03:19.436Z,1005.78
2018-04-02T09:04:19.393Z,1005.80
2018-04-02T09:05:19.350Z,1005.76
2018-04-02T09:06:19.332Z,1005.73
2018-04-02T09:07:19.265Z,1005.78
2018-04-02T09:08:19.222Z,1005.73
2018-04-02T09:09:19.180Z,1005.72
2018-04-02T09:10:19.134Z,1005.78
2018-04-02T09:11:19.092Z,1005.71
2018-04-02T09:12:19.048Z,1005.68
2018-04-02T09:13:19.051Z,1005.66
2018-04-02T09:14:18.964Z,1005.71
2018-04-02T09:15:18.924Z,1005.63
2018-04-02T09:16:18.877Z,1005.59
2018-04-02T09:17:18.836Z,1005.56
2018-04-02T09:18:18.795Z,1005.57
2018-04-02T09:19:18.754Z,1005.55
2018-04-02T09:20:18.706Z,1005.56
2018-04-02T09:21:18.687Z,1005.53
2018-04-02T09:22:18.622Z,1005.51
2018-04-02T09:23:18.578Z,1005.52
2018-04-02T09:24:18.534Z,1005.50
2018-04-02T09:25:18.492Z,1005.49
2018-04-02T09:26:18.445Z,1005.50
2018-04-02T09:27:18.409Z,1005.49
2018-04-02T09:28:18.365Z,1005.49
2018-04-02T09:29:18.329Z,1005.45
2018-04-02T09:30:18.278Z,1005.43
2018-04-02T09:31:18.234Z,1005.38
2018-04-02T09:32:18.188Z,1005.43
2018-04-02T09:33:18.144Z,1005.43
2018-04-02T09:34:18.099Z,1005.46
2018-04-02T09:35:18.061Z,1005.43
2018-04-02T09:36:18.018Z,1005.39
2018-04-02T09:37:17.971Z,1005.38
2018-04-02T09:38:17.929Z,1005.38
2018-04-02T09:39:17.888Z,1005.35
2018-04-02T09:40:17.843Z,1005.26
2018-04-02T09:41:17.806Z,1005.27
2018-04-02T09:42:17.756Z,1005.27
2018-04-02T09:43:17.713Z,1005.24
2018-04-02T09:44:17.678Z,1005.29
2018-04-02T09:45:17.633Z,1005.25
2018-04-02T09:46:17.584Z,1005.19
2018-04-02T09:47:17.542Z,1005.23
2018-04-02T09:48:17.508Z,1005.24
2018-04-02T09:49:17.467Z,1005.19
2018-04-02T09:50:17.410Z,1005.18
2018-04-02T09:51:17.381Z,1005.19
2018-04-02T09:52:17.326Z,1005.16
2018-04-02T09:53:17.290Z,1005.17
2018-04-02T09:54:17.273Z,1005.23
2018-04-02T09:55:17.218Z,1005.15
2018-04-02T09:56:17.827Z,1005.19
2018-04-02T09:57:17.120Z,1005.11
2018-04-02T09:58:17.066Z,1005.10
2018-04-02T09:59:17.087Z,1005.05
2018-04-02T10:00:16.984Z,1005.06
2018-04-02T10:01:16.937Z,1005.01
2018-04-02T10:02:16.901Z,1005.04
2018-04-02T10:03:16.850Z,1004.95
2018-04-02T10:04:16.812Z,1004.95
2018-04-02T10:05:16.767Z,1004.92
2018-04-02T10:06:16.736Z,1004.94
2018-04-02T10:07:16.679Z,1004.94
2018-04-02T10:08:16.639Z,1004.90
2018-04-02T10:09:16.597Z,1004.84
2018-04-02T10:10:16.569Z,1004.83
2018-04-02T10:11:16.508Z,1004.86
2018-04-02T10:12:16.471Z,1004.78
2018-04-02T10:13:16.426Z,1004.74
2018-04-02T10:14:16.381Z,1004.77
2018-04-02T10:15:16.339Z,1004.70
2018-04-02T10:16:16.297Z,1004.75
2018-04-02T10:17:16.253Z,1004.70
2018-04-02T10:18:16.209Z,1004.66
2018-04-02T10:19:16.176Z,1004.62
2018-04-02T10:20:16.128Z,1004.68
2018-04-02T10:21:16.080Z,1004.60
2018-04-02T10:22:16.042Z,1004.59
2018-04-02T10:23:15.998Z,1004.60
2018-04-02T10:24:15.954Z,1004.54
2018-04-02T10:25:15.910Z,1004.52
2018-04-02T10:26:15.899Z,1004.52
2018-04-02T10:27:15.828Z,1004.52
2018-04-02T10:28:15.787Z,1004.55
2018-04-02T10:29:15.741Z,1004.56
2018-04-02T10:30:15.697Z,1004.51
2018-04-02T10:31:15.655Z,1004.50
2018-04-02T10:32:15.614Z,1004.45
2018-04-02T10:33:15.570Z,1004.36
2018-04-02T10:34:15.571Z,1004.35
2018-04-02T10:35:15.493Z,1004.31
2018-04-02T10:36:15.446Z,1004.27
2018-04-02T10:37:15.414Z,1004.30
2018-04-02T10:38:15.367Z,1004.29
2018-04-02T10:39:15.324Z,1004.26
2018-04-02T10:40:15.279Z,1004.31
2018-04-02T10:41:15.238Z,1004.21
2018-04-02T10:42:15.193Z,1004.22
2018-04-02T10:43:15.162Z,1004.09
2018-04-02T10:44:15.112Z,1004.20
2018-04-02T10:45:15.069Z,1004.18
2018-04-02T10:46:15.032Z,1004.16
2018-04-02T10:47:14.988Z,1004.19
2018-04-02T10:48:14.950Z,1004.17
2018-04-02T10:50:14.880Z,1004.18
2018-04-02T10:51:14.823Z,1004.26
2018-04-02T10:52:14.787Z,1004.10
2018-04-02T10:53:14.744Z,1004.16
2018-04-02T10:54:14.705Z,1004.15
2018-04-02T10:55:14.662Z,1004.13
2018-04-02T10:56:14.621Z,1004.16
2018-04-02T10:57:14.576Z,1004.13
2018-04-02T10:58:14.537Z,1004.14
2018-04-02T10:59:14.500Z,1004.10
2018-04-02T11:00:14.467Z,1004.13
2018-04-02T11:01:14.434Z,1004.11
2018-04-02T11:02:14.373Z,1004.13
2018-04-02T11:03:14.331Z,1004.16
2018-04-02T11:04:14.290Z,1004.04
2018-04-02T11:05:14.249Z,1004.00
2018-04-02T11:06:14.221Z,1003.98
2018-04-02T11:07:14.250Z,1003.95
2018-04-02T11:08:14.128Z,1003.96
2018-04-02T11:09:14.084Z,1003.90
2018-04-02T11:10:14.048Z,1003.96
2018-04-02T11:11:14.002Z,1003.86
2018-04-02T11:12:13.972Z,1003.89
2018-04-02T11:13:13.918Z,1003.90
2018-04-02T11:14:13.879Z,1003.83
2018-04-02T11:15:13.838Z,1003.70
2018-04-02T11:16:13.825Z,1003.79
2018-04-02T11:17:13.892Z,1003.74
2018-04-02T11:18:13.742Z,1003.75
2018-04-02T11:19:13.864Z,1003.71
2018-04-02T11:20:13.696Z,1003.69
2018-04-02T11:21:13.590Z,1003.66
2018-04-02T11:22:13.608Z,1003.61
2018-04-02T11:23:13.523Z,1003.62
2018-04-02T11:24:13.614Z,1003.62
2018-04-02T11:25:13.427Z,1003.57
2018-04-02T11:26:13.505Z,1003.55
2018-04-02T11:27:13.346Z,1003.50
2018-04-02T11:28:13.401Z,1003.41
2018-04-02T11:29:13.260Z,1003.34
2018-04-02T11:30:13.223Z,1003.34
2018-04-02T11:31:13.180Z,1003.35
2018-04-02T11:32:13.140Z,1003.33
2018-04-02T11:33:13.101Z,1003.32
2018-04-02T11:34:13.056Z,1003.32
2018-04-02T11:35:13.018Z,1003.28
2018-04-02T11:36:12.976Z,1003.22
2018-04-02T11:37:12.933Z,1003.23
2018-04-02T11:38:12.894Z,1003.24
2018-04-02T11:39:13.853Z,1003.22
2018-04-02T11:40:12.941Z,1003.20
2018-04-02T11:41:13.376Z,1003.23
2018-04-02T11:42:12.736Z,1003.19
2018-04-02T11:43:12.690Z,1003.24
2018-04-02T11:44:12.652Z,1003.17
2018-04-02T11:45:12.611Z,1003.20
2018-04-02T11:46:12.612Z,1003.18
2018-04-02T11:47:12.683Z,1003.19
2018-04-02T11:48:12.514Z,1003.27
2018-04-02T11:49:12.448Z,1003.18
2018-04-02T11:50:12.408Z,1003.21
2018-04-02T11:51:12.372Z,1003.16
2018-04-02T11:52:12.330Z,1003.20
2018-04-02T11:53:12.287Z,1003.20
2018-04-02T11:54:12.571Z,1003.16
2018-04-02T11:55:12.212Z,1003.15
2018-04-02T11:56:12.168Z,1003.08
2018-04-02T11:57:12.151Z,1003.02
2018-04-02T11:58:12.088Z,1003.10
2018-04-02T11:59:12.047Z,1003.06
2018-04-02T12:00:12.017Z,1003.04
2018-04-02T12:01:11.975Z,1003.09
2018-04-02T12:02:11.928Z,1003.07
2018-04-02T12:03:11.892Z,1003.01
2018-04-02T12:04:12.068Z,1003.04
2018-04-02T12:05:11.925Z,1003.00
2018-04-02T12:06:11.946Z,1002.97
2018-04-02T12:07:11.722Z,1002.99